Terminal Aerodrome Forecast
Issued by NWS Mt. Holly, NJ

Home | Current Version | Previous Version | Text Only | Print | Product List | Glossary On
Versions: 1 2 3 4 5 6 7 8 9 10 11 12 13
138
FTUS41 KPHI 271128
TAFILG
TAF
KILG 271128Z 2712/2812 28006KT P6SM BKN100
     FM271400 25008KT P6SM SCT070
     FM271700 25012KT P6SM BKN070
     FM272200 27008KT P6SM SCT060
     FM280300 31006KT P6SM SCT200=

USA.gov is the U.S. government's official web portal to all federal, state and local government web resources and services.